createdAt,value
2022-08-19T00:00:35.065Z,22.71
2022-08-19T00:03:05.183Z,22.71
2022-08-19T00:05:35.467Z,22.73
2022-08-19T00:08:06.843Z,22.75
2022-08-19T00:10:39.666Z,22.79
2022-08-19T00:13:10.561Z,22.75
2022-08-19T00:15:40.801Z,22.70
2022-08-19T00:18:11.075Z,22.63
2022-08-19T00:20:41.903Z,22.61
2022-08-19T00:23:12.028Z,22.61
2022-08-19T00:25:45.135Z,22.56
2022-08-19T00:28:18.994Z,22.46
2022-08-19T00:30:49.166Z,22.35
2022-08-19T00:33:20.709Z,22.41
2022-08-19T00:35:55.927Z,22.45
2022-08-19T00:38:35.020Z,22.42
2022-08-19T00:41:11.210Z,22.49
2022-08-19T00:43:42.249Z,22.43
2022-08-19T00:46:12.611Z,22.38
2022-08-19T00:48:43.178Z,22.49
2022-08-19T00:51:13.138Z,22.51
2022-08-19T00:53:44.586Z,22.54
2022-08-19T00:56:18.344Z,22.55
2022-08-19T00:58:48.681Z,22.55
2022-08-19T01:01:19.100Z,22.48
2022-08-19T01:03:57.251Z,22.56
2022-08-19T01:06:31.910Z,22.57
2022-08-19T01:09:02.769Z,22.47
2022-08-19T01:11:40.577Z,22.48
2022-08-19T01:14:13.444Z,22.54
2022-08-19T01:16:44.746Z,22.54
2022-08-19T01:19:29.002Z,22.55
2022-08-19T01:22:13.097Z,22.55
2022-08-19T01:24:49.999Z,22.56
2022-08-19T01:27:23.598Z,22.60
2022-08-19T01:29:54.956Z,22.65
2022-08-19T01:32:32.506Z,22.68
2022-08-19T01:35:05.271Z,22.71
2022-08-19T01:37:47.451Z,22.70
2022-08-19T01:40:21.541Z,22.69
2022-08-19T01:42:52.534Z,22.75
2022-08-19T01:45:24.572Z,22.89
2022-08-19T01:48:02.377Z,22.98
2022-08-19T01:50:34.161Z,23.09
2022-08-19T01:53:07.945Z,23.15
2022-08-19T01:55:44.176Z,23.20
2022-08-19T01:58:24.809Z,23.24
2022-08-19T02:00:55.515Z,23.25
2022-08-19T02:03:26.222Z,23.19
2022-08-19T02:06:01.631Z,23.19
2022-08-19T02:08:32.355Z,23.08
2022-08-19T02:11:05.572Z,23.00
2022-08-19T02:13:37.991Z,22.94
2022-08-19T02:16:08.820Z,22.83
2022-08-19T02:18:38.941Z,22.89
2022-08-19T02:21:09.229Z,22.80
2022-08-19T02:23:39.818Z,22.75
2022-08-19T02:26:12.463Z,22.79
2022-08-19T02:28:43.593Z,22.58
2022-08-19T02:31:16.020Z,22.62
2022-08-19T02:33:46.681Z,22.67
2022-08-19T02:36:20.550Z,22.72
2022-08-19T02:38:54.306Z,22.74
2022-08-19T02:41:31.990Z,22.75
2022-08-19T02:44:29.882Z,22.83
2022-08-19T02:46:56.527Z,22.63
2022-08-19T02:49:26.765Z,22.67
2022-08-19T02:51:56.999Z,22.71
2022-08-19T02:54:27.250Z,22.73
2022-08-19T02:57:00.010Z,22.70
2022-08-19T02:59:33.884Z,22.77
2022-08-19T03:02:04.216Z,22.82
2022-08-19T03:04:34.447Z,22.70
2022-08-19T03:07:10.523Z,22.70
2022-08-19T03:09:43.525Z,22.73
2022-08-19T03:12:16.987Z,22.72
2022-08-19T03:14:47.662Z,22.86
2022-08-19T03:17:18.152Z,22.99
2022-08-19T03:19:48.779Z,23.07
2022-08-19T03:22:18.992Z,23.05
2022-08-19T03:24:51.009Z,23.08
2022-08-19T03:27:23.792Z,23.05
2022-08-19T03:30:00.459Z,23.03
2022-08-19T03:32:32.922Z,22.98
2022-08-19T03:35:03.944Z,22.95
2022-08-19T03:37:34.667Z,23.01
2022-08-19T03:40:05.185Z,22.99
2022-08-19T03:42:49.397Z,22.90
2022-08-19T03:45:20.622Z,22.80
2022-08-19T03:47:50.785Z,22.61
2022-08-19T03:50:21.174Z,22.66
2022-08-19T03:52:54.405Z,22.70
2022-08-19T03:55:24.711Z,22.74
2022-08-19T03:57:59.375Z,22.66
2022-08-19T04:00:29.633Z,22.63
2022-08-19T04:03:00.845Z,22.66
2022-08-19T04:05:32.328Z,22.62
2022-08-19T04:08:02.509Z,22.60
2022-08-19T04:10:32.768Z,22.51
2022-08-19T04:13:06.425Z,22.50
2022-08-19T04:15:40.616Z,22.48
2022-08-19T04:18:11.423Z,22.33
2022-08-19T04:20:50.846Z,22.26
2022-08-19T04:23:21.001Z,22.28
2022-08-19T04:25:51.432Z,22.31
2022-08-19T04:28:24.530Z,22.35
2022-08-19T04:30:56.959Z,22.38
2022-08-19T04:33:29.658Z,22.38
2022-08-19T04:35:59.933Z,22.38
2022-08-19T04:38:30.126Z,22.36
2022-08-19T04:41:12.739Z,22.26
2022-08-19T04:43:49.511Z,22.18
2022-08-19T04:46:39.341Z,22.01
2022-08-19T04:49:13.154Z,21.96
2022-08-19T04:51:46.841Z,21.94
2022-08-19T04:54:19.195Z,21.79
2022-08-19T04:57:09.688Z,21.81
2022-08-19T04:59:43.517Z,21.84
2022-08-19T05:02:13.901Z,21.88
2022-08-19T05:04:44.119Z,21.84
2022-08-19T05:07:14.651Z,21.84
2022-08-19T05:09:57.556Z,21.84
2022-08-19T05:12:30.468Z,21.85
2022-08-19T05:15:03.854Z,21.89
2022-08-19T05:17:38.244Z,21.98
2022-08-19T05:20:23.984Z,22.07
2022-08-19T05:22:54.329Z,22.03
2022-08-19T05:25:26.877Z,22.09
2022-08-19T05:27:57.028Z,22.04
2022-08-19T05:30:42.383Z,22.02
2022-08-19T05:33:17.105Z,21.98
2022-08-19T05:35:49.409Z,21.90
2022-08-19T05:38:20.319Z,21.86
2022-08-19T05:40:50.624Z,21.83
2022-08-19T05:43:20.823Z,21.89
2022-08-19T05:45:53.790Z,21.90
2022-08-19T05:48:23.990Z,21.96
2022-08-19T05:50:54.223Z,22.03
2022-08-19T05:53:24.467Z,22.03
2022-08-19T05:55:54.609Z,22.02
2022-08-19T05:58:28.120Z,22.04
2022-08-19T06:01:05.370Z,22.13
2022-08-19T06:03:38.417Z,22.09
2022-08-19T06:06:10.065Z,21.94
2022-08-19T06:08:43.886Z,21.79
2022-08-19T06:11:21.916Z,21.74
2022-08-19T06:13:59.353Z,21.89
2022-08-19T06:16:35.023Z,21.98
2022-08-19T06:19:10.714Z,22.01
2022-08-19T06:21:44.555Z,22.14
2022-08-19T06:24:20.107Z,22.07
2022-08-19T06:26:56.685Z,22.07
2022-08-19T06:29:32.544Z,21.88
2022-08-19T06:32:07.607Z,21.96
2022-08-19T06:34:38.590Z,21.97
2022-08-19T06:37:08.835Z,22.11
2022-08-19T06:39:43.074Z,22.10
2022-08-19T06:42:17.926Z,22.11
2022-08-19T06:44:53.085Z,21.90
2022-08-19T06:47:28.869Z,22.02
2022-08-19T06:50:02.790Z,21.97
2022-08-19T06:52:34.323Z,21.96
2022-08-19T06:55:08.015Z,22.01
2022-08-19T06:57:38.504Z,21.99
2022-08-19T07:00:13.185Z,22.04
2022-08-19T07:02:52.446Z,22.19
2022-08-19T07:05:27.604Z,22.19
2022-08-19T07:08:01.608Z,22.21
2022-08-19T07:10:36.116Z,22.26
2022-08-19T07:13:07.014Z,22.40
2022-08-19T07:15:37.776Z,22.43
2022-08-19T07:18:12.707Z,22.52
2022-08-19T07:20:44.151Z,22.60
2022-08-19T07:23:16.160Z,22.59
2022-08-19T07:25:52.758Z,22.66
2022-08-19T07:28:24.932Z,22.69
2022-08-19T07:30:55.810Z,22.61
2022-08-19T07:33:28.295Z,22.51
2022-08-19T07:35:59.606Z,22.53
2022-08-19T07:38:29.871Z,22.49
2022-08-19T07:41:00.023Z,22.37
2022-08-19T07:43:35.155Z,22.33
2022-08-19T07:46:05.829Z,22.37
2022-08-19T07:48:38.807Z,22.34
2022-08-19T07:51:11.943Z,22.41
2022-08-19T07:53:45.919Z,22.53
2022-08-19T07:56:17.800Z,22.62
2022-08-19T07:58:52.158Z,22.72
2022-08-19T08:01:27.593Z,22.79
2022-08-19T08:04:14.338Z,22.84
2022-08-19T08:06:57.291Z,22.86
2022-08-19T08:09:31.266Z,22.79
2022-08-19T08:12:32.995Z,22.81
2022-08-19T08:15:02.684Z,22.82
2022-08-19T08:17:49.600Z,22.76
2022-08-19T08:20:24.747Z,22.80
2022-08-19T08:23:07.350Z,22.83
2022-08-19T08:25:39.253Z,22.93
2022-08-19T08:28:11.322Z,22.93
2022-08-19T08:30:45.182Z,22.94
2022-08-19T08:36:10.620Z,22.98
2022-08-19T08:38:42.132Z,22.99
2022-08-19T08:41:23.168Z,22.95
2022-08-19T08:43:56.517Z,22.94
2022-08-19T08:46:39.211Z,22.88
2022-08-19T08:49:23.844Z,22.83
2022-08-19T08:52:03.798Z,22.77
2022-08-19T08:54:39.743Z,22.85
2022-08-19T08:57:18.369Z,22.93
2022-08-19T08:59:52.915Z,22.95
2022-08-19T09:02:23.433Z,22.99
2022-08-19T09:04:53.640Z,23.07
2022-08-19T09:07:48.329Z,23.04
2022-08-19T09:10:26.348Z,23.08
2022-08-19T09:13:09.727Z,23.16
2022-08-19T09:15:52.171Z,23.22
2022-08-19T09:18:22.418Z,23.35
2022-08-19T09:20:52.604Z,23.47
2022-08-19T09:23:26.999Z,23.56
2022-08-19T09:25:57.569Z,23.54
2022-08-19T09:28:28.726Z,23.63
2022-08-19T09:30:59.078Z,23.65
2022-08-19T09:33:30.125Z,23.65
2022-08-19T09:36:08.800Z,23.70
2022-08-19T09:38:43.436Z,23.66
2022-08-19T09:41:17.341Z,23.68
2022-08-19T09:43:53.160Z,23.85
2022-08-19T09:46:24.769Z,24.03
2022-08-19T09:48:57.911Z,24.12
2022-08-19T09:51:33.354Z,24.01
2022-08-19T09:54:11.259Z,24.02
2022-08-19T09:56:42.382Z,24.14
2022-08-19T09:59:13.236Z,24.25
2022-08-19T10:01:43.600Z,24.40
2022-08-19T10:04:19.677Z,24.50
2022-08-19T10:06:53.492Z,24.50
2022-08-19T10:09:34.488Z,24.47
2022-08-19T10:12:11.096Z,24.50
2022-08-19T10:14:41.787Z,24.57
2022-08-19T10:17:19.142Z,24.64
2022-08-19T10:19:55.524Z,24.65
2022-08-19T10:22:27.200Z,24.57
2022-08-19T10:25:00.036Z,24.52
2022-08-19T10:27:32.148Z,24.70
2022-08-19T10:30:02.468Z,24.80
2022-08-19T10:32:34.043Z,24.81
2022-08-19T10:35:06.992Z,24.81
2022-08-19T10:37:37.942Z,24.84
2022-08-19T10:40:22.959Z,24.75
2022-08-19T10:42:53.468Z,24.67
2022-08-19T10:45:26.518Z,24.41
2022-08-19T10:47:58.345Z,24.25
2022-08-19T10:50:41.462Z,24.19
2022-08-19T10:53:12.562Z,23.99
2022-08-19T10:55:57.859Z,24.02
2022-08-19T10:58:28.053Z,23.99
2022-08-19T11:01:01.715Z,23.81
2022-08-19T11:03:32.178Z,23.65
2022-08-19T11:06:03.447Z,23.52
2022-08-19T11:08:34.543Z,23.54
2022-08-19T11:11:10.989Z,23.57
2022-08-19T11:13:45.578Z,23.77
2022-08-19T11:16:18.813Z,23.88
2022-08-19T11:18:51.476Z,23.88
2022-08-19T11:21:24.884Z,23.95
2022-08-19T11:23:58.848Z,23.83
2022-08-19T11:26:32.821Z,23.73
2022-08-19T11:29:03.809Z,23.60
2022-08-19T11:31:39.925Z,23.46
2022-08-19T11:34:14.356Z,23.24
2022-08-19T11:36:46.882Z,23.16
2022-08-19T11:39:21.136Z,23.06
2022-08-19T11:41:53.935Z,23.09
2022-08-19T11:44:24.247Z,22.99
2022-08-19T11:46:54.714Z,22.94
2022-08-19T11:49:24.881Z,23.00
2022-08-19T11:51:55.348Z,23.03
2022-08-19T11:54:25.446Z,23.01
2022-08-19T11:56:58.294Z,23.07
2022-08-19T11:59:28.432Z,23.16
2022-08-19T12:02:00.317Z,23.09
2022-08-19T12:04:30.222Z,22.91
2022-08-19T12:07:00.410Z,22.76
2022-08-19T12:09:31.053Z,22.74
2022-08-19T12:12:03.944Z,22.69
2022-08-19T12:14:34.129Z,22.66
2022-08-19T12:17:05.983Z,22.61
2022-08-19T12:19:37.504Z,22.51
2022-08-19T12:22:08.727Z,22.59
2022-08-19T12:24:39.055Z,22.60
2022-08-19T12:27:12.830Z,22.57
2022-08-19T12:29:43.502Z,22.42
2022-08-19T12:32:13.705Z,22.53
2022-08-19T12:34:43.874Z,22.54
2022-08-19T12:37:14.770Z,22.52
2022-08-19T12:39:47.364Z,22.51
2022-08-19T12:42:20.535Z,22.35
2022-08-19T12:44:50.709Z,22.33
2022-08-19T12:47:21.540Z,22.26
2022-08-19T12:49:55.585Z,22.17
2022-08-19T12:52:28.454Z,22.16
2022-08-19T12:55:01.011Z,22.08
2022-08-19T12:57:34.234Z,22.09
2022-08-19T13:00:10.639Z,22.04
2022-08-19T13:02:42.543Z,21.98
2022-08-19T13:05:16.909Z,21.98
2022-08-19T13:07:47.575Z,22.07
2022-08-19T13:10:24.628Z,22.12
2022-08-19T13:12:57.821Z,22.20
2022-08-19T13:15:29.546Z,22.23
2022-08-19T13:17:59.838Z,22.21
2022-08-19T13:20:30.080Z,22.17
2022-08-19T13:22:59.954Z,22.22
2022-08-19T13:25:29.867Z,22.25
2022-08-19T13:28:03.380Z,22.20
2022-08-19T13:30:45.672Z,22.29
2022-08-19T13:33:16.686Z,22.37
2022-08-19T13:35:51.979Z,22.43
2022-08-19T13:38:24.053Z,22.50
2022-08-19T13:40:55.376Z,22.55
2022-08-19T13:43:30.438Z,22.64
2022-08-19T13:46:01.132Z,22.71
2022-08-19T13:48:32.235Z,22.78
2022-08-19T13:51:02.103Z,22.73
2022-08-19T13:53:31.995Z,22.75
2022-08-19T13:56:01.888Z,22.86
2022-08-19T13:58:34.403Z,22.88
2022-08-19T14:01:04.401Z,23.06
2022-08-19T14:03:35.056Z,23.16
2022-08-19T14:06:05.353Z,23.12
2022-08-19T14:08:35.225Z,23.11
2022-08-19T14:11:06.357Z,23.22
2022-08-19T14:13:39.567Z,23.31
2022-08-19T14:16:13.633Z,23.31
2022-08-19T14:18:44.128Z,23.30
2022-08-19T14:21:19.159Z,23.39
2022-08-19T14:23:48.995Z,23.39
2022-08-19T14:26:21.411Z,23.46
2022-08-19T14:28:55.565Z,23.46
2022-08-19T14:31:30.635Z,23.43
2022-08-19T14:34:00.899Z,23.39
2022-08-19T14:36:31.484Z,23.38
2022-08-19T14:39:01.938Z,23.21
2022-08-19T14:41:31.935Z,23.19
2022-08-19T14:44:04.505Z,23.11
2022-08-19T14:46:34.402Z,23.10
2022-08-19T14:49:09.541Z,23.13
2022-08-19T14:51:39.689Z,23.04
2022-08-19T14:54:09.581Z,22.97
2022-08-19T14:56:39.511Z,22.95
2022-08-19T14:59:11.993Z,22.95
2022-08-19T15:01:42.032Z,23.00
2022-08-19T15:04:12.082Z,23.12
2022-08-19T15:06:43.374Z,23.18
2022-08-19T15:09:13.780Z,23.18
2022-08-19T15:11:43.778Z,23.19
2022-08-19T15:14:16.383Z,23.16
2022-08-19T15:16:46.340Z,23.00
2022-08-19T15:19:16.820Z,23.06
2022-08-19T15:21:46.740Z,23.12
2022-08-19T15:24:17.364Z,23.05
2022-08-19T15:26:48.384Z,22.92
2022-08-19T15:29:21.085Z,22.90
2022-08-19T15:31:51.858Z,22.93
2022-08-19T15:34:25.071Z,22.92
2022-08-19T15:36:55.089Z,22.96
2022-08-19T15:39:24.966Z,22.98
2022-08-19T15:41:54.966Z,22.95
2022-08-19T15:44:27.652Z,22.90
2022-08-19T15:46:57.604Z,22.90
2022-08-19T15:49:27.489Z,22.90
2022-08-19T15:51:58.127Z,22.88
2022-08-19T15:54:28.083Z,22.85
2022-08-19T15:57:10.410Z,22.86
2022-08-19T15:59:55.316Z,22.85
2022-08-19T16:02:41.184Z,22.84
2022-08-19T16:05:28.417Z,22.83
2022-08-19T16:07:59.211Z,22.72
2022-08-19T16:10:29.701Z,22.69
2022-08-19T16:13:00.837Z,22.65
2022-08-19T16:15:33.865Z,22.63
2022-08-19T16:18:04.913Z,22.68
2022-08-19T16:20:35.634Z,22.67
2022-08-19T16:23:06.297Z,22.62
2022-08-19T16:25:36.480Z,22.59
2022-08-19T16:28:08.601Z,22.54
2022-08-19T16:30:43.069Z,22.54
2022-08-19T16:33:22.669Z,22.46
2022-08-19T16:36:00.292Z,22.45
2022-08-19T16:38:37.671Z,22.43
2022-08-19T16:41:08.307Z,22.42
2022-08-19T16:43:40.122Z,22.45
2022-08-19T16:46:12.993Z,22.40
2022-08-19T16:48:48.451Z,22.40
2022-08-19T16:51:18.827Z,22.38
2022-08-19T16:53:49.170Z,22.31
2022-08-19T16:56:19.693Z,22.25
2022-08-19T16:58:50.303Z,22.27
2022-08-19T17:01:23.266Z,22.27
2022-08-19T17:03:53.261Z,22.24
2022-08-19T17:06:26.169Z,22.23
2022-08-19T17:08:58.414Z,22.17
2022-08-19T17:11:29.665Z,22.21
2022-08-19T17:13:59.565Z,22.26
2022-08-19T17:16:34.975Z,22.21
2022-08-19T17:19:07.231Z,22.21
2022-08-19T17:21:39.427Z,22.23
2022-08-19T17:24:10.353Z,22.24
2022-08-19T17:26:41.636Z,22.23
2022-08-19T17:29:11.535Z,22.25
2022-08-19T17:31:44.097Z,22.23
2022-08-19T17:34:14.075Z,22.23
2022-08-19T17:36:44.035Z,22.18
2022-08-19T17:39:14.165Z,22.13
2022-08-19T17:41:44.244Z,22.12
2022-08-19T17:44:14.708Z,22.11
2022-08-19T17:46:47.269Z,22.07
2022-08-19T17:49:19.987Z,21.98
2022-08-19T17:51:52.363Z,22.04
2022-08-19T17:54:22.694Z,22.05
2022-08-19T17:56:52.763Z,22.03
2022-08-19T17:59:22.682Z,21.96
2022-08-19T18:01:59.124Z,21.94
2022-08-19T18:04:30.236Z,21.90
2022-08-19T18:07:04.398Z,21.93
2022-08-19T18:09:42.353Z,21.96
2022-08-19T18:12:14.141Z,21.98
2022-08-19T18:14:44.886Z,21.97
2022-08-19T18:17:19.450Z,22.00
2022-08-19T18:19:50.379Z,21.92
2022-08-19T18:22:27.094Z,21.90
2022-08-19T18:24:57.597Z,21.90
2022-08-19T18:27:28.465Z,21.96
2022-08-19T18:29:59.781Z,21.95
2022-08-19T18:32:35.230Z,21.86
2022-08-19T18:35:11.178Z,21.94
2022-08-19T18:37:41.393Z,21.95
2022-08-19T18:40:25.978Z,22.03
2022-08-19T18:43:17.466Z,22.05
2022-08-19T18:45:59.921Z,22.07
2022-08-19T18:48:45.054Z,22.02
2022-08-19T18:51:16.366Z,21.98
2022-08-19T18:53:47.482Z,21.96
2022-08-19T18:56:19.864Z,21.93
2022-08-19T18:58:50.513Z,21.92
2022-08-19T19:01:22.510Z,21.89
2022-08-19T19:03:57.492Z,21.83
2022-08-19T19:06:31.143Z,21.80
2022-08-19T19:09:01.142Z,21.88
2022-08-19T19:11:33.942Z,21.91
2022-08-19T19:14:04.942Z,21.97
2022-08-19T19:16:35.304Z,21.99
2022-08-19T19:19:13.106Z,22.04
2022-08-19T19:21:47.624Z,22.06
2022-08-19T19:24:20.227Z,22.08
2022-08-19T19:26:51.283Z,22.11
2022-08-19T19:29:22.053Z,22.11
2022-08-19T19:31:56.115Z,22.09
2022-08-19T19:34:29.764Z,22.10
2022-08-19T19:37:00.058Z,22.13
2022-08-19T19:39:44.985Z,22.11
2022-08-19T19:42:20.440Z,22.16
2022-08-19T19:44:52.136Z,22.22
2022-08-19T19:47:24.688Z,22.23
2022-08-19T19:50:15.124Z,22.32
2022-08-19T19:52:48.335Z,22.28
2022-08-19T19:55:20.838Z,22.29
2022-08-19T19:57:53.697Z,22.28
2022-08-19T20:00:25.388Z,22.27
2022-08-19T20:02:56.121Z,22.28
2022-08-19T20:05:28.774Z,22.33
2022-08-19T20:08:11.478Z,22.25
2022-08-19T20:10:42.112Z,22.23
2022-08-19T20:13:13.637Z,22.19
2022-08-19T20:15:43.680Z,22.18
2022-08-19T20:18:14.604Z,22.12
2022-08-19T20:20:50.118Z,22.14
2022-08-19T20:23:20.297Z,22.14
2022-08-19T20:25:50.624Z,22.08
2022-08-19T20:28:23.020Z,22.01
2022-08-19T20:30:53.245Z,21.97
2022-08-19T20:33:23.189Z,21.96
2022-08-19T20:35:55.885Z,21.88
2022-08-19T20:38:25.831Z,21.94
2022-08-19T20:40:55.775Z,21.87
2022-08-19T20:43:25.736Z,21.91
2022-08-19T20:45:56.642Z,21.93
2022-08-19T20:48:26.741Z,22.01
2022-08-19T20:50:59.972Z,21.92
2022-08-19T20:53:29.965Z,21.86
2022-08-19T20:56:00.173Z,21.76
2022-08-19T20:58:30.159Z,21.77
2022-08-19T21:01:02.617Z,21.79
2022-08-19T21:03:34.549Z,21.85
2022-08-19T21:06:16.610Z,21.79
2022-08-19T21:08:49.899Z,21.83
2022-08-19T21:11:22.710Z,21.84
2022-08-19T21:13:52.598Z,21.86
2022-08-19T21:16:22.466Z,21.86
2022-08-19T21:18:52.347Z,21.82
2022-08-19T21:21:24.818Z,21.73
2022-08-19T21:23:55.527Z,21.74
2022-08-19T21:26:25.426Z,21.79
2022-08-19T21:28:55.436Z,21.80
2022-08-19T21:31:25.344Z,21.77
2022-08-19T21:33:55.897Z,21.76
2022-08-19T21:36:28.422Z,21.83
2022-08-19T21:38:59.066Z,21.83
2022-08-19T21:41:28.998Z,21.71
2022-08-19T21:43:58.872Z,21.67
2022-08-19T21:46:28.736Z,21.56
2022-08-19T21:48:58.616Z,21.59
2022-08-19T21:51:31.919Z,21.52
2022-08-19T21:54:02.462Z,21.51
2022-08-19T21:56:32.697Z,21.58
2022-08-19T21:59:02.573Z,21.63
2022-08-19T22:01:32.454Z,21.56
2022-08-19T22:04:02.378Z,21.60
2022-08-19T22:06:34.965Z,21.65
2022-08-19T22:09:05.445Z,21.72
2022-08-19T22:11:35.285Z,21.72
2022-08-19T22:14:05.776Z,21.75
2022-08-19T22:16:37.656Z,21.77
2022-08-19T22:19:08.144Z,21.80
2022-08-19T22:21:41.328Z,21.82
2022-08-19T22:24:12.171Z,21.87
2022-08-19T22:26:42.083Z,21.86
2022-08-19T22:29:15.189Z,21.82
2022-08-19T22:31:54.320Z,21.80
2022-08-19T22:34:28.300Z,21.76
2022-08-19T22:37:00.815Z,21.75
2022-08-19T22:39:30.720Z,21.76
2022-08-19T22:42:00.609Z,21.75
2022-08-19T22:44:30.706Z,21.75
2022-08-19T22:47:00.574Z,21.73
2022-08-19T22:49:30.443Z,21.71
2022-08-19T22:52:17.694Z,21.71
2022-08-19T22:54:48.959Z,21.76
2022-08-19T22:57:19.929Z,21.65
2022-08-19T22:59:51.257Z,21.65
2022-08-19T23:02:21.984Z,21.68
2022-08-19T23:04:52.462Z,21.69
2022-08-19T23:07:25.645Z,21.69
2022-08-19T23:09:55.492Z,21.80
2022-08-19T23:12:30.737Z,21.73
2022-08-19T23:15:04.980Z,21.71
2022-08-19T23:17:35.383Z,21.64
2022-08-19T23:20:05.901Z,21.64
2022-08-19T23:22:41.806Z,21.58
2022-08-19T23:25:14.363Z,21.41
2022-08-19T23:27:56.785Z,21.35
2022-08-19T23:30:29.726Z,21.30
2022-08-19T23:33:02.401Z,21.26
2022-08-19T23:35:36.471Z,21.34
2022-08-19T23:38:09.258Z,21.43
2022-08-19T23:40:40.240Z,21.43
2022-08-19T23:43:14.736Z,21.37
2022-08-19T23:45:51.263Z,21.36
2022-08-19T23:48:21.568Z,21.36
2022-08-19T23:50:52.200Z,21.41
2022-08-19T23:53:24.754Z,21.43
2022-08-19T23:55:55.221Z,21.48
2022-08-19T23:58:27.819Z,21.45
